Jefferson City, TN (37760)

2:40 PM EST on December 05, 2016 (GMT -0500)
KTNJEFFE2 | | Change Station

Elev 1205 ft 36.14 °N, 83.44 °W | Updated 19 seconds ago

Overcast
Overcast
51.0 °F
Feels Like 51.0 °F
N
1.0
Wind Variable Wind from ESE
Gusts 1.0 mph

Today
High -- | Low -- °F
--% Chance of Precip.
Yesterday
High -- | Low -- °F
Precip. -- in
Pressure 29.97 in
Visibility 10.0 miles
Clouds Overcast 1800 ft
Dew Point 47 °F
Humidity 87%
Rainfall 0.07 in
Snow Depth Not available.
7:30 AM 5:19 PM
Waxing Crescent, 34% visible
METAR KTYS 051853Z 04009KT 10SM OVC018 11/08 A2997 RMK AO2 SLP148 T01110078
Pressure 29.97 in
Visibility 10.0 miles
Clouds Overcast 1800 ft
Dew Point 47 °F
Humidity 87%
Rainfall 0.07 in
Snow Depth Not available.
7:30 AM 5:19 PM
Waxing Crescent, 34% visible
METAR KTYS 051853Z 04009KT 10SM OVC018 11/08 A2997 RMK AO2 SLP148 T01110078

10-Day Weather Forecast

Almanac

Astronomy

Dec. 05, 2016 Rise Set
Actual Time
Civil Twilight
Nautical Twilight
Astronomical Twilight
Moon
Length of Visible Light
Length of Day
Tomorrow will be .
, % of the Moon is Illuminated

Today's Extremes

State Highs State Lows

Community

WunderPhotos

Upload Photos

1,955,852 photos uploaded!

WunderBlog® & News

Nearby

Air Quality

  Air Quality AQ Index Pollutant
Not available.

Snow Depth

Station Depth Elevation

Earthquake Activity

City Distance Mag. Time & Date
Minimum magnitude displayed is 2.5.

Coastal Water Temperatures

Place Temperature

Stations

Nearby Weather Stations

Station Location Temp. Windchill Dew Point Humidity Wind Precip. Elev Updated Type
                   

Watches & Warnings

There are currently no watches in effect.